Search for airport 
image banner adimage banner adimage banner ad
image banner ad

53CL - Lofty Redwoods

Located in Anchor Bay, United States

ICAO - 53CL, IATA -

Data provided by Airmate  

General information

Coordinates: N38°51'35" W123°35'26"
Elevation is 1317 feet MSL.
Magnetic variation is 17° East
View others Airports in California

Operational data

Special qualification required
Current time UTC:
Current local time:
Weather at : KUKI - Ukiah Muni ( 45 km )
METAR: KUKI 141111Z AUTO 00000KT 10SM BKN025 17/14 A2997 RMK AO2 T01720139
TAF: KUKI 140540Z 1406/1506 VRB05KT P6SM SCT025 OVC035 FM141300 VRB03KT P6SM SCT025 BKN050 FM141600 32007KT P6SM SCT250 FM142100 29015KT P6SM SCT250 FM150300 35008KT P6SM FEW250
View NOTAMs / SUP AIP / TFR affecting this airport [VIEW]
Communications frequencies: [VIEW]

Runways:

RWY identifierQFULength (ft)Width (ft)SurfaceLDA (ft)
13320060OTHER
31320060OTHER

Airport contact information

Address: Anchor Bay United States

Satellite view of 53CL